Time;durP1;ratioP1;P1;durP2;ratioP2;P2;SDS_P1;SDS_P2;PMS_P1;PMS_P2;Temp;Humidity;BMP_temperature;BMP_pressure;BME280_temperature;BME280_humidity;BME280_pressure;Samples;Min_cycle;Max_cycle;Signal;HPM_P1;HPM_P2
2021/05/08 00:00:58;;;;;;;15.63;10.85;;;;;;;;;;5015767;23;20693;-67
2021/05/08 00:03:23;;;;;;;20.23;10.93;;;;;;;;;;5011964;28;20065;-69
2021/05/08 00:05:49;;;;;;;18.33;11.05;;;;;;;;;;5011974;28;20363;-67
2021/05/08 00:08:14;;;;;;;19.27;12.13;;;;;;;;;;5011541;28;20018;-67
2021/05/08 00:10:40;;;;;;;18.38;11.38;;;;;;;;;;5011697;28;20021;-67
2021/05/08 00:13:05;;;;;;;21.60;10.82;;;;;;;;;;5011808;28;20026;-67
2021/05/08 00:15:30;;;;;;;19.42;11.63;;;;;;;;;;5011061;28;20060;-67
2021/05/08 00:17:55;;;;;;;16.75;11.57;;;;;;;;;;5011470;28;20080;-67
2021/05/08 00:20:21;;;;;;;22.52;12.45;;;;;;;;;;5011819;28;20024;-68
2021/05/08 00:22:46;;;;;;;19.08;12.75;;;;;;;;;;5011693;28;20103;-68
2021/05/08 00:25:11;;;;;;;19.60;12.43;;;;;;;;;;5011262;28;20026;-68
2021/05/08 00:27:37;;;;;;;21.30;12.55;;;;;;;;;;5009135;28;20430;-68
2021/05/08 00:30:06;;;;;;;16.83;12.05;;;;;;;;;;5011331;28;20026;-68
2021/05/08 00:32:31;;;;;;;22.35;12.52;;;;;;;;;;5010505;28;20026;-68
2021/05/08 00:34:56;;;;;;;20.65;12.80;;;;;;;;;;5011154;28;20022;-68
2021/05/08 00:37:21;;;;;;;19.52;11.63;;;;;;;;;;5011300;28;20018;-67
2021/05/08 00:39:46;;;;;;;17.70;11.57;;;;;;;;;;5011241;28;20021;-68
2021/05/08 00:42:12;;;;;;;22.23;12.57;;;;;;;;;;5011448;28;20029;-67
2021/05/08 00:44:37;;;;;;;22.02;11.23;;;;;;;;;;5010478;28;20537;-67
2021/05/08 00:47:03;;;;;;;23.65;12.90;;;;;;;;;;5011316;28;20714;-68
2021/05/08 00:49:29;;;;;;;20.45;12.40;;;;;;;;;;5011236;28;20026;-68
2021/05/08 00:51:55;;;;;;;27.02;12.73;;;;;;;;;;5009816;28;20068;-68
2021/05/08 00:54:21;;;;;;;21.38;11.57;;;;;;;;;;5010987;28;20406;-68
2021/05/08 00:56:46;;;;;;;20.58;12.63;;;;;;;;;;5011198;28;20053;-68
2021/05/08 00:59:12;;;;;;;29.35;12.43;;;;;;;;;;5010246;28;20367;-67
2021/05/08 01:01:37;;;;;;;21.90;12.40;;;;;;;;;;5013950;28;20056;-68
2021/05/08 01:04:02;;;;;;;21.00;12.77;;;;;;;;;;5030691;28;20100;-68
2021/05/08 01:06:27;;;;;;;21.52;13.93;;;;;;;;;;5029719;28;20477;-66
2021/05/08 01:08:53;;;;;;;17.80;11.70;;;;;;;;;;5029994;28;20014;-66
2021/05/08 01:11:18;;;;;;;24.40;13.45;;;;;;;;;;5029866;28;20026;-69
2021/05/08 01:13:43;;;;;;;21.13;13.90;;;;;;;;;;5030165;28;20104;-67
2021/05/08 01:16:09;;;;;;;23.10;13.65;;;;;;;;;;5030567;28;20025;-67
2021/05/08 01:18:34;;;;;;;20.80;13.55;;;;;;;;;;5029383;28;20029;-67
2021/05/08 01:21:00;;;;;;;22.58;13.85;;;;;;;;;;5030500;28;20036;-67
2021/05/08 01:23:25;;;;;;;21.65;13.90;;;;;;;;;;5030207;28;20036;-68
2021/05/08 01:25:51;;;;;;;20.60;12.43;;;;;;;;;;5030349;28;20025;-67
2021/05/08 01:28:16;;;;;;;20.45;13.10;;;;;;;;;;5029712;28;20029;-68
2021/05/08 01:30:42;;;;;;;23.27;13.73;;;;;;;;;;5030662;28;20017;-68
2021/05/08 01:33:07;;;;;;;22.58;13.65;;;;;;;;;;5029908;28;20029;-68
2021/05/08 01:35:33;;;;;;;19.85;12.75;;;;;;;;;;5030446;28;20610;-68
2021/05/08 01:37:59;;;;;;;21.98;13.32;;;;;;;;;;5029688;28;20032;-68
2021/05/08 01:40:26;;;;;;;20.67;13.05;;;;;;;;;;5030182;28;20374;-68
2021/05/08 01:42:53;;;;;;;22.25;14.10;;;;;;;;;;5029420;28;20028;-68
2021/05/08 01:45:19;;;;;;;25.80;13.75;;;;;;;;;;5029938;28;20049;-68
2021/05/08 01:47:45;;;;;;;23.98;14.05;;;;;;;;;;5029674;28;20029;-67
2021/05/08 01:50:11;;;;;;;23.40;15.52;;;;;;;;;;5029461;28;20034;-68
2021/05/08 01:52:37;;;;;;;27.63;14.70;;;;;;;;;;5029504;28;20410;-68
2021/05/08 01:55:06;;;;;;;22.70;13.98;;;;;;;;;;5028841;28;20018;-68
2021/05/08 01:57:37;;;;;;;24.75;15.30;;;;;;;;;;5025875;28;20490;-67
2021/05/08 02:00:05;;;;;;;21.75;13.48;;;;;;;;;;5015359;28;20068;-67
2021/05/08 02:02:30;;;;;;;23.20;13.55;;;;;;;;;;5029417;28;20030;-67
2021/05/08 02:04:56;;;;;;;27.40;13.73;;;;;;;;;;5029904;28;20063;-67
2021/05/08 02:07:21;;;;;;;27.05;14.30;;;;;;;;;;5029782;28;20512;-67
2021/05/08 02:09:46;;;;;;;22.70;14.18;;;;;;;;;;5029880;28;20017;-67
2021/05/08 02:12:11;;;;;;;24.80;13.63;;;;;;;;;;5028867;28;20026;-67
2021/05/08 02:14:36;;;;;;;22.00;14.07;;;;;;;;;;5030053;28;20048;-67
2021/05/08 02:17:02;;;;;;;23.67;13.98;;;;;;;;;;5031340;28;20013;-67
2021/05/08 02:19:27;;;;;;;21.60;13.25;;;;;;;;;;5033178;28;20448;-67
2021/05/08 02:21:52;;;;;;;24.83;13.50;;;;;;;;;;5033645;28;20443;-67
2021/05/08 02:24:17;;;;;;;19.73;11.73;;;;;;;;;;5033644;28;20456;-67
2021/05/08 02:26:43;;;;;;;20.13;12.38;;;;;;;;;;5033833;28;20025;-68
2021/05/08 02:29:08;;;;;;;21.35;13.35;;;;;;;;;;5034106;28;20040;-68
2021/05/08 02:31:33;;;;;;;26.27;13.02;;;;;;;;;;5033880;28;20048;-68
2021/05/08 02:33:58;;;;;;;23.10;13.77;;;;;;;;;;5033242;28;20037;-68
2021/05/08 02:36:23;;;;;;;23.58;13.63;;;;;;;;;;5033540;28;20705;-68
2021/05/08 02:38:49;;;;;;;25.65;13.65;;;;;;;;;;5032883;28;20021;-68
2021/05/08 02:41:14;;;;;;;22.45;13.63;;;;;;;;;;5032786;28;20025;-69
2021/05/08 02:43:39;;;;;;;22.60;13.50;;;;;;;;;;5024856;28;20091;-67
2021/05/08 02:46:04;;;;;;;25.33;14.27;;;;;;;;;;5033771;28;20097;-67
2021/05/08 02:48:29;;;;;;;23.00;13.80;;;;;;;;;;5032465;28;20100;-68
2021/05/08 02:50:55;;;;;;;19.83;12.82;;;;;;;;;;5033043;28;20017;-68
2021/05/08 02:53:20;;;;;;;23.13;13.40;;;;;;;;;;5032076;28;20500;-67
2021/05/08 02:55:45;;;;;;;20.40;13.45;;;;;;;;;;5033097;28;20018;-67
2021/05/08 02:58:10;;;;;;;20.65;14.10;;;;;;;;;;5032900;28;20033;-67
2021/05/08 03:00:35;;;;;;;25.35;15.23;;;;;;;;;;5032941;28;20526;-67
2021/05/08 03:03:00;;;;;;;26.88;14.95;;;;;;;;;;5032596;28;20033;-67
2021/05/08 03:05:26;;;;;;;22.10;14.10;;;;;;;;;;5032649;28;20056;-67
2021/05/08 03:07:51;;;;;;;26.23;13.25;;;;;;;;;;5032087;28;20066;-67
2021/05/08 03:10:16;;;;;;;25.02;14.30;;;;;;;;;;5032326;28;20049;-67
2021/05/08 03:12:41;;;;;;;32.00;13.80;;;;;;;;;;5032563;28;20021;-68
2021/05/08 03:15:07;;;;;;;25.52;14.73;;;;;;;;;;5032243;28;20032;-68
2021/05/08 03:17:32;;;;;;;34.80;13.65;;;;;;;;;;5032870;28;20022;-67
2021/05/08 03:19:58;;;;;;;26.83;13.35;;;;;;;;;;5032249;28;20020;-67
2021/05/08 03:22:23;;;;;;;20.52;13.07;;;;;;;;;;5032279;28;20033;-68
2021/05/08 03:24:48;;;;;;;26.27;14.00;;;;;;;;;;5032179;28;20025;-67
2021/05/08 03:27:14;;;;;;;32.15;15.65;;;;;;;;;;5031953;28;20021;-67
2021/05/08 03:29:39;;;;;;;26.98;15.48;;;;;;;;;;5031039;28;20022;-67
2021/05/08 03:32:04;;;;;;;24.85;14.68;;;;;;;;;;5032176;28;20123;-68
2021/05/08 03:34:29;;;;;;;25.15;13.77;;;;;;;;;;5031893;28;20049;-67
2021/05/08 03:36:55;;;;;;;23.15;14.55;;;;;;;;;;5032251;28;20508;-67
2021/05/08 03:39:20;;;;;;;25.58;14.27;;;;;;;;;;5013860;28;20014;-67
2021/05/08 03:41:46;;;;;;;24.00;14.85;;;;;;;;;;5032215;28;20049;-67
2021/05/08 03:44:11;;;;;;;21.98;13.60;;;;;;;;;;5031826;28;20367;-67
2021/05/08 03:46:36;;;;;;;24.33;13.23;;;;;;;;;;5032045;28;20017;-67
2021/05/08 03:49:01;;;;;;;25.08;13.60;;;;;;;;;;5031917;28;20017;-67
2021/05/08 03:51:27;;;;;;;20.80;12.90;;;;;;;;;;5032065;28;20507;-67
2021/05/08 03:53:52;;;;;;;22.25;12.85;;;;;;;;;;5031402;28;20021;-67
2021/05/08 03:56:18;;;;;;;23.70;13.93;;;;;;;;;;5032472;28;20101;-67
2021/05/08 03:58:43;;;;;;;25.52;14.13;;;;;;;;;;5013516;28;20036;-67
2021/05/08 04:01:08;;;;;;;24.02;13.63;;;;;;;;;;5031754;28;20025;-67
2021/05/08 04:03:33;;;;;;;24.80;14.07;;;;;;;;;;5030966;28;20395;-67
2021/05/08 04:05:58;;;;;;;22.48;13.77;;;;;;;;;;5032035;28;20028;-67
2021/05/08 04:08:24;;;;;;;23.63;13.48;;;;;;;;;;5031592;28;20124;-67
2021/05/08 04:10:49;;;;;;;24.85;14.23;;;;;;;;;;5031532;28;20021;-67
2021/05/08 04:13:15;;;;;;;24.98;14.10;;;;;;;;;;5030815;28;20018;-67
2021/05/08 04:15:40;;;;;;;24.33;13.80;;;;;;;;;;5031617;28;20036;-67
2021/05/08 04:18:05;;;;;;;25.05;14.18;;;;;;;;;;5031475;28;20390;-67
2021/05/08 04:20:31;;;;;;;22.50;12.95;;;;;;;;;;5030840;28;20028;-67
2021/05/08 04:22:56;;;;;;;27.70;14.32;;;;;;;;;;5031315;28;20404;-67
2021/05/08 04:25:21;;;;;;;22.48;13.18;;;;;;;;;;5031197;28;20057;-67
2021/05/08 04:27:46;;;;;;;27.05;14.63;;;;;;;;;;5031467;28;20097;-67
2021/05/08 04:30:12;;;;;;;22.67;13.30;;;;;;;;;;5030739;28;20040;-67
2021/05/08 04:32:37;;;;;;;28.83;15.32;;;;;;;;;;5029975;28;20075;-67
2021/05/08 04:35:02;;;;;;;25.55;13.73;;;;;;;;;;5031276;28;20262;-67
2021/05/08 04:37:28;;;;;;;25.95;14.00;;;;;;;;;;5030946;28;20049;-67
2021/05/08 04:39:53;;;;;;;22.63;13.18;;;;;;;;;;5030581;28;20045;-67
2021/05/08 04:42:18;;;;;;;22.00;12.98;;;;;;;;;;5030572;28;20021;-67
2021/05/08 04:44:43;;;;;;;19.08;12.07;;;;;;;;;;5030821;28;20463;-67
2021/05/08 04:47:12;;;;;;;21.65;13.77;;;;;;;;;;5030472;28;20104;-68
2021/05/08 04:49:37;;;;;;;19.50;12.18;;;;;;;;;;5030848;28;20080;-68
2021/05/08 04:52:02;;;;;;;22.40;11.90;;;;;;;;;;5030215;28;20025;-67
2021/05/08 04:54:28;;;;;;;26.85;13.25;;;;;;;;;;5013551;28;20028;-67
2021/05/08 04:56:53;;;;;;;23.13;13.30;;;;;;;;;;5030304;28;20026;-68
2021/05/08 04:59:18;;;;;;;30.73;14.38;;;;;;;;;;5030226;28;20675;-68
2021/05/08 05:01:43;;;;;;;24.55;13.98;;;;;;;;;;5030155;28;20029;-68
2021/05/08 05:04:08;;;;;;;20.23;11.95;;;;;;;;;;5030629;28;20020;-67
2021/05/08 05:06:33;;;;;;;22.58;12.25;;;;;;;;;;5030963;28;20049;-67
2021/05/08 05:08:59;;;;;;;17.85;10.95;;;;;;;;;;5030180;28;20025;-68
2021/05/08 05:11:24;;;;;;;22.25;11.60;;;;;;;;;;5029767;28;20103;-68
2021/05/08 05:13:49;;;;;;;21.05;10.60;;;;;;;;;;5030580;28;20040;-68
2021/05/08 05:16:15;;;;;;;21.75;11.05;;;;;;;;;;5030266;28;20037;-68
2021/05/08 05:18:40;;;;;;;17.40;10.45;;;;;;;;;;5029709;28;20028;-68
2021/05/08 05:21:05;;;;;;;22.48;11.20;;;;;;;;;;5029877;28;20030;-68
2021/05/08 05:23:30;;;;;;;23.95;11.40;;;;;;;;;;5030194;28;20017;-66
2021/05/08 05:25:56;;;;;;;16.27;9.45;;;;;;;;;;5030586;28;20033;-67
2021/05/08 05:28:22;;;;;;;20.08;10.65;;;;;;;;;;5030012;28;20029;-67
2021/05/08 05:30:47;;;;;;;18.90;9.75;;;;;;;;;;5029583;28;20026;-67
2021/05/08 05:33:13;;;;;;;19.05;9.35;;;;;;;;;;5030177;28;20040;-67
2021/05/08 05:35:38;;;;;;;14.48;8.98;;;;;;;;;;5029945;28;20022;-67
2021/05/08 05:38:03;;;;;;;17.83;7.45;;;;;;;;;;5029932;28;20040;-67
2021/05/08 05:40:28;;;;;;;13.30;6.95;;;;;;;;;;5029777;28;20087;-67
2021/05/08 05:42:53;;;;;;;12.80;5.88;;;;;;;;;;5030051;28;20040;-67
2021/05/08 05:45:19;;;;;;;11.73;6.30;;;;;;;;;;5029928;28;20056;-67
2021/05/08 05:47:45;;;;;;;10.68;5.95;;;;;;;;;;5029681;28;20064;-67
2021/05/08 05:50:10;;;;;;;5.95;4.03;;;;;;;;;;5027992;28;20480;-67
2021/05/08 05:52:35;;;;;;;8.85;4.53;;;;;;;;;;5031486;28;20060;-69
2021/05/08 05:55:01;;;;;;;14.95;5.95;;;;;;;;;;5033904;28;20022;-68
2021/05/08 05:57:26;;;;;;;7.88;4.72;;;;;;;;;;5022175;28;20048;-68
2021/05/08 05:59:51;;;;;;;4.67;2.87;;;;;;;;;;5030164;28;20036;-68
2021/05/08 06:04:44;;;;;;;10.20;4.05;;;;;;;;;;5030993;28;20308;-61
2021/05/08 06:07:09;;;;;;;10.75;4.97;;;;;;;;;;5030388;28;20056;-62
2021/05/08 06:09:34;;;;;;;8.30;5.43;;;;;;;;;;5032259;28;20104;-60
2021/05/08 06:11:59;;;;;;;9.15;4.55;;;;;;;;;;5032293;28;20299;-61
2021/05/08 06:14:25;;;;;;;11.45;5.57;;;;;;;;;;5032854;28;20355;-61
2021/05/08 06:16:51;;;;;;;9.05;4.57;;;;;;;;;;5024462;28;20025;-60
2021/05/08 06:19:16;;;;;;;9.63;4.60;;;;;;;;;;5020063;28;20009;-64
2021/05/08 06:21:42;;;;;;;9.18;5.15;;;;;;;;;;5033159;28;20024;-63
2021/05/08 06:24:07;;;;;;;7.30;4.60;;;;;;;;;;5032179;28;20013;-62
2021/05/08 06:26:34;;;;;;;7.85;3.75;;;;;;;;;;5032633;28;20033;-61
2021/05/08 06:28:59;;;;;;;7.93;4.95;;;;;;;;;;5032385;28;20021;-62
2021/05/08 06:31:24;;;;;;;6.85;4.38;;;;;;;;;;5030754;28;20017;-61
2021/05/08 06:33:49;;;;;;;12.75;4.97;;;;;;;;;;5032704;28;20021;-62
2021/05/08 06:36:14;;;;;;;4.17;2.87;;;;;;;;;;5031099;28;20013;-61
2021/05/08 06:38:39;;;;;;;8.30;3.53;;;;;;;;;;5026774;28;20630;-61
2021/05/08 06:41:05;;;;;;;8.17;3.70;;;;;;;;;;5025840;28;20256;-61
2021/05/08 06:43:30;;;;;;;4.28;2.60;;;;;;;;;;5029634;28;20330;-62
2021/05/08 06:45:55;;;;;;;7.20;4.07;;;;;;;;;;5030122;28;20084;-63
2021/05/08 06:48:20;;;;;;;4.85;2.75;;;;;;;;;;5030506;28;20291;-63
2021/05/08 06:50:46;;;;;;;6.28;3.28;;;;;;;;;;5029084;28;20057;-62
2021/05/08 06:53:11;;;;;;;10.32;4.82;;;;;;;;;;5027564;28;20013;-63
2021/05/08 06:55:37;;;;;;;8.07;3.53;;;;;;;;;;5028676;28;20096;-63
2021/05/08 06:58:02;;;;;;;6.13;1.92;;;;;;;;;;5028377;28;20468;-62
2021/05/08 07:00:28;;;;;;;8.80;3.80;;;;;;;;;;5030916;28;20021;-63
2021/05/08 07:02:53;;;;;;;7.60;3.42;;;;;;;;;;5030406;28;20033;-63
2021/05/08 07:05:18;;;;;;;8.03;4.17;;;;;;;;;;5030689;28;20112;-63
2021/05/08 07:07:44;;;;;;;9.35;4.07;;;;;;;;;;5024727;28;20272;-62
2021/05/08 07:10:09;;;;;;;4.22;2.30;;;;;;;;;;5029925;28;20099;-60
2021/05/08 07:12:34;;;;;;;7.30;3.95;;;;;;;;;;5030415;28;20029;-63
2021/05/08 07:14:59;;;;;;;5.97;2.50;;;;;;;;;;5030446;28;20501;-62
2021/05/08 07:17:25;;;;;;;5.72;3.33;;;;;;;;;;5029374;28;20348;-63
2021/05/08 07:19:50;;;;;;;7.90;3.47;;;;;;;;;;5020394;28;20026;-63
2021/05/08 07:22:15;;;;;;;4.68;2.53;;;;;;;;;;5022699;28;20036;-63
2021/05/08 07:27:43;;;;;;;5.68;3.40;;;;;;;;;;5016444;28;20092;-60
2021/05/08 07:30:09;;;;;;;7.57;2.60;;;;;;;;;;5012672;28;20052;-61
2021/05/08 07:32:34;;;;;;;7.43;3.25;;;;;;;;;;5022086;28;20033;-62
2021/05/08 07:34:59;;;;;;;2.83;1.92;;;;;;;;;;5021224;28;20049;-64
2021/05/08 07:37:25;;;;;;;7.47;3.20;;;;;;;;;;5029307;28;20359;-63
2021/05/08 07:39:50;;;;;;;8.23;3.50;;;;;;;;;;5029861;28;20546;-62
2021/05/08 07:42:15;;;;;;;5.23;2.00;;;;;;;;;;5029556;28;20275;-63
2021/05/08 07:44:40;;;;;;;5.93;2.97;;;;;;;;;;5029812;28;20770;-60
2021/05/08 07:47:05;;;;;;;3.65;2.38;;;;;;;;;;5029384;28;20264;-63
2021/05/08 07:49:30;;;;;;;7.15;3.08;;;;;;;;;;5027564;28;20280;-61
2021/05/08 07:51:55;;;;;;;4.53;2.20;;;;;;;;;;5019459;28;20558;-63
2021/05/08 07:54:21;;;;;;;5.23;1.73;;;;;;;;;;5023860;28;20260;-62
2021/05/08 07:56:46;;;;;;;5.40;2.57;;;;;;;;;;5029435;28;20272;-63
2021/05/08 07:59:11;;;;;;;5.90;1.70;;;;;;;;;;5029606;28;20294;-62
2021/05/08 08:01:36;;;;;;;6.80;2.20;;;;;;;;;;5029243;28;20795;-64
2021/05/08 08:04:01;;;;;;;6.38;2.85;;;;;;;;;;5023179;28;20291;-64
2021/05/08 08:06:27;;;;;;;5.85;2.58;;;;;;;;;;5019735;28;20041;-64
2021/05/08 08:08:52;;;;;;;9.82;2.67;;;;;;;;;;5029514;28;20119;-64
2021/05/08 08:11:17;;;;;;;5.70;2.60;;;;;;;;;;5029813;28;20132;-64
2021/05/08 08:13:42;;;;;;;7.03;3.45;;;;;;;;;;5029950;28;20906;-63
2021/05/08 08:16:07;;;;;;;4.65;1.33;;;;;;;;;;5029082;28;20108;-65
2021/05/08 08:18:32;;;;;;;5.10;2.40;;;;;;;;;;5027739;28;20021;-66
2021/05/08 08:20:58;;;;;;;7.63;3.80;;;;;;;;;;5029022;28;20268;-65
2021/05/08 08:23:23;;;;;;;6.82;3.05;;;;;;;;;;5028343;28;20275;-65
2021/05/08 08:25:49;;;;;;;6.40;2.63;;;;;;;;;;5018827;28;20044;-66
2021/05/08 08:28:14;;;;;;;4.50;1.80;;;;;;;;;;5025609;28;20034;-65
2021/05/08 08:30:40;;;;;;;7.90;2.73;;;;;;;;;;5028373;28;20021;-64
2021/05/08 08:33:05;;;;;;;6.30;2.25;;;;;;;;;;5027254;28;20839;-66
2021/05/08 08:35:30;;;;;;;8.80;3.15;;;;;;;;;;5028397;28;20048;-65
2021/05/08 08:37:55;;;;;;;6.37;3.60;;;;;;;;;;5028361;28;20060;-62
2021/05/08 08:40:21;;;;;;;5.07;1.90;;;;;;;;;;5023095;28;20268;-65
2021/05/08 08:42:46;;;;;;;3.88;1.60;;;;;;;;;;5026622;28;20276;-64
2021/05/08 08:45:11;;;;;;;11.95;2.20;;;;;;;;;;5026404;28;20149;-65
2021/05/08 08:47:37;;;;;;;7.45;2.28;;;;;;;;;;5028753;28;20025;-64
2021/05/08 08:50:02;;;;;;;7.38;2.13;;;;;;;;;;5028926;28;20037;-65
2021/05/08 08:52:28;;;;;;;7.13;2.72;;;;;;;;;;5029282;28;20025;-65
2021/05/08 08:54:54;;;;;;;6.97;2.03;;;;;;;;;;5020238;28;20036;-64
2021/05/08 08:57:25;;;;;;;2.67;1.83;;;;;;;;;;5028402;28;20361;-64
2021/05/08 08:59:52;;;;;;;11.98;2.50;;;;;;;;;;5028244;28;20014;-65
2021/05/08 09:02:17;;;;;;;5.25;2.90;;;;;;;;;;5026176;28;20025;-63
2021/05/08 09:04:42;;;;;;;5.10;2.73;;;;;;;;;;5028072;28;20587;-64
2021/05/08 09:07:08;;;;;;;7.40;2.87;;;;;;;;;;5024634;28;20263;-64
2021/05/08 09:09:33;;;;;;;6.40;1.83;;;;;;;;;;5025007;28;20969;-64
2021/05/08 09:11:58;;;;;;;11.50;2.95;;;;;;;;;;5027848;28;20033;-64
2021/05/08 09:14:27;;;;;;;7.47;3.30;;;;;;;;;;5027417;28;20021;-63
2021/05/08 09:17:04;;;;;;;4.20;2.20;;;;;;;;;;5026191;28;20036;-64
2021/05/08 09:19:30;;;;;;;6.13;2.92;;;;;;;;;;5021211;28;20096;-64
2021/05/08 09:21:55;;;;;;;4.63;2.35;;;;;;;;;;5027486;28;20092;-64
2021/05/08 09:24:20;;;;;;;4.75;2.05;;;;;;;;;;5026556;28;20474;-65
2021/05/08 09:26:48;;;;;;;3.03;1.73;;;;;;;;;;5025869;28;20036;-65
2021/05/08 09:29:18;;;;;;;7.00;2.00;;;;;;;;;;5014453;28;20147;-64
2021/05/08 09:31:52;;;;;;;10.70;2.70;;;;;;;;;;5026545;28;20232;-64
2021/05/08 09:34:18;;;;;;;7.82;3.03;;;;;;;;;;5027822;28;20061;-65
2021/05/08 09:36:54;;;;;;;12.23;3.33;;;;;;;;;;5026896;28;20029;-65
2021/05/08 09:39:32;;;;;;;4.97;2.08;;;;;;;;;;5025817;28;20485;-64
2021/05/08 09:41:57;;;;;;;4.82;2.08;;;;;;;;;;5018534;28;20108;-65
2021/05/08 09:44:23;;;;;;;8.02;3.50;;;;;;;;;;5027759;28;20139;-65
2021/05/08 09:46:48;;;;;;;8.48;2.50;;;;;;;;;;5027351;28;20026;-65
2021/05/08 09:49:15;;;;;;;7.80;2.50;;;;;;;;;;5026126;28;20092;-65
2021/05/08 09:51:40;;;;;;;5.78;2.05;;;;;;;;;;5026899;28;20163;-65
2021/05/08 09:54:18;;;;;;;6.65;3.33;;;;;;;;;;5027118;28;20548;-64
2021/05/08 09:56:47;;;;;;;8.20;3.75;;;;;;;;;;5027727;28;20018;-65
2021/05/08 09:59:25;;;;;;;7.22;3.33;;;;;;;;;;5027080;28;20029;-65
2021/05/08 10:02:09;;;;;;;8.63;2.55;;;;;;;;;;5024400;28;20021;-65
2021/05/08 10:04:37;;;;;;;5.38;2.65;;;;;;;;;;5023275;28;20037;-65
2021/05/08 10:07:13;;;;;;;9.10;3.05;;;;;;;;;;5026930;28;20029;-65
2021/05/08 10:09:39;;;;;;;5.28;2.63;;;;;;;;;;5025927;28;20029;-64
2021/05/08 10:12:06;;;;;;;10.52;3.17;;;;;;;;;;5026610;28;20037;-64
2021/05/08 10:14:33;;;;;;;3.58;2.15;;;;;;;;;;5024817;28;20364;-65
2021/05/08 10:16:58;;;;;;;8.38;2.63;;;;;;;;;;5025492;28;20092;-64
2021/05/08 10:19:24;;;;;;;4.80;2.28;;;;;;;;;;5023919;28;20104;-64
2021/05/08 10:21:50;;;;;;;5.75;3.20;;;;;;;;;;5029652;28;20544;-65
2021/05/08 10:24:15;;;;;;;5.00;2.17;;;;;;;;;;5027929;28;20026;-63
2021/05/08 10:26:41;;;;;;;6.13;1.98;;;;;;;;;;5027616;28;20296;-65
2021/05/08 10:29:06;;;;;;;7.85;1.73;;;;;;;;;;5026547;28;20100;-62
2021/05/08 10:31:33;;;;;;;3.90;1.58;;;;;;;;;;5012728;28;20113;-65
2021/05/08 10:33:58;;;;;;;4.60;1.88;;;;;;;;;;5026512;28;20033;-64
2021/05/08 10:36:42;;;;;;;6.90;3.50;;;;;;;;;;5030003;28;20160;-64
2021/05/08 10:39:07;;;;;;;3.00;1.67;;;;;;;;;;5033096;28;20259;-65
2021/05/08 10:41:51;;;;;;;20.43;1.97;;;;;;;;;;5016546;28;20017;-65
2021/05/08 10:44:55;;;;;;;3.75;1.95;;;;;;;;;;5033615;28;20351;-65
2021/05/08 10:47:20;;;;;;;5.38;2.25;;;;;;;;;;4953027;29;20023;-65
2021/05/08 10:50:05;;;;;;;4.13;1.60;;;;;;;;;;4953009;29;20023;-66
2021/05/08 10:52:51;;;;;;;3.92;1.98;;;;;;;;;;4988588;28;20029;-65
2021/05/08 10:55:22;;;;;;;5.28;2.30;;;;;;;;;;4976765;28;20037;-65
2021/05/08 10:58:07;;;;;;;4.28;2.30;;;;;;;;;;5013440;28;20026;-65
2021/05/08 11:00:43;;;;;;;7.60;2.00;;;;;;;;;;5013608;28;20423;-65
2021/05/08 11:03:08;;;;;;;3.58;1.58;;;;;;;;;;5027756;28;20021;-66
2021/05/08 11:05:39;;;;;;;3.87;1.53;;;;;;;;;;5033269;28;20104;-65
2021/05/08 11:08:22;;;;;;;7.43;2.22;;;;;;;;;;5033065;28;20256;-64
2021/05/08 11:10:51;;;;;;;11.35;2.83;;;;;;;;;;5032831;28;20116;-64
2021/05/08 11:13:19;;;;;;;7.47;1.95;;;;;;;;;;5033081;28;20033;-64
2021/05/08 11:15:50;;;;;;;6.63;1.83;;;;;;;;;;5033036;28;20048;-64
2021/05/08 11:18:34;;;;;;;3.55;1.38;;;;;;;;;;5033215;28;20005;-65
2021/05/08 11:21:02;;;;;;;8.40;2.17;;;;;;;;;;5033244;28;20091;-65
2021/05/08 11:23:55;;;;;;;7.72;2.58;;;;;;;;;;5026017;28;20018;-66
2021/05/08 11:26:20;;;;;;;2.60;1.52;;;;;;;;;;5025256;28;20030;-64
2021/05/08 11:28:55;;;;;;;3.88;1.75;;;;;;;;;;5029193;28;20034;-65
2021/05/08 11:31:24;;;;;;;6.05;2.30;;;;;;;;;;5022868;28;20022;-65
2021/05/08 11:33:49;;;;;;;2.92;1.15;;;;;;;;;;5027655;28;20030;-65
2021/05/08 11:36:14;;;;;;;8.45;2.60;;;;;;;;;;5030798;28;20064;-64
2021/05/08 11:38:39;;;;;;;6.13;2.33;;;;;;;;;;5031637;28;20026;-65
2021/05/08 11:41:24;;;;;;;3.47;1.73;;;;;;;;;;5028187;28;20617;-63
2021/05/08 11:43:53;;;;;;;3.22;1.70;;;;;;;;;;5031066;28;20270;-65
2021/05/08 11:46:29;;;;;;;4.50;2.17;;;;;;;;;;5032323;28;20025;-66
2021/05/08 11:48:54;;;;;;;3.15;1.75;;;;;;;;;;5033810;28;20032;-64
2021/05/08 11:51:19;;;;;;;3.17;1.35;;;;;;;;;;5029944;28;20025;-65
2021/05/08 11:54:01;;;;;;;1.73;1.13;;;;;;;;;;5024797;28;20080;-65
2021/05/08 11:56:33;;;;;;;4.75;2.13;;;;;;;;;;5031651;28;20279;-65
2021/05/08 11:59:00;;;;;;;3.55;1.75;;;;;;;;;;5030573;28;20041;-64
2021/05/08 12:01:25;;;;;;;6.25;0.77;;;;;;;;;;5031842;28;20080;-65
2021/05/08 12:03:54;;;;;;;3.03;1.10;;;;;;;;;;5031872;23;20046;-63
2021/05/08 12:06:19;;;;;;;3.50;1.13;;;;;;;;;;5014620;28;20018;-64
2021/05/08 12:08:44;;;;;;;1.48;0.90;;;;;;;;;;5017871;28;20497;-64
2021/05/08 12:11:14;;;;;;;1.47;0.90;;;;;;;;;;5016749;28;20025;-65
2021/05/08 12:13:39;;;;;;;4.70;0.73;;;;;;;;;;5020473;28;20296;-64
2021/05/08 12:16:05;;;;;;;2.70;0.70;;;;;;;;;;5011524;28;20032;-65
2021/05/08 12:18:32;;;;;;;4.90;0.80;;;;;;;;;;5011427;28;20276;-66
2021/05/08 12:20:57;;;;;;;4.57;1.00;;;;;;;;;;5011452;28;20056;-64
2021/05/08 12:23:23;;;;;;;5.00;1.23;;;;;;;;;;5012037;28;20026;-67
2021/05/08 12:26:07;;;;;;;2.22;0.32;;;;;;;;;;5014850;28;20022;-64
2021/05/08 12:28:33;;;;;;;2.63;0.90;;;;;;;;;;5023255;28;20024;-63
2021/05/08 12:30:59;;;;;;;8.40;1.10;;;;;;;;;;5011687;28;20441;-64
2021/05/08 12:33:25;;;;;;;3.40;0.90;;;;;;;;;;5024807;28;20254;-66
2021/05/08 12:35:51;;;;;;;5.38;1.15;;;;;;;;;;5011070;28;20421;-66
2021/05/08 12:38:16;;;;;;;4.25;0.73;;;;;;;;;;5012028;28;20029;-65
2021/05/08 12:40:41;;;;;;;1.17;0.85;;;;;;;;;;5012138;28;20010;-65
2021/05/08 12:43:06;;;;;;;5.37;1.47;;;;;;;;;;5004251;28;20091;-66
2021/05/08 12:45:32;;;;;;;6.20;1.67;;;;;;;;;;5013365;28;20261;-64
2021/05/08 12:47:57;;;;;;;6.30;2.03;;;;;;;;;;5030876;28;20398;-65
2021/05/08 12:50:28;;;;;;;2.50;1.20;;;;;;;;;;5014390;28;20265;-64
2021/05/08 12:52:58;;;;;;;4.32;1.30;;;;;;;;;;5023578;28;20284;-65
2021/05/08 12:55:24;;;;;;;2.15;1.17;;;;;;;;;;5014630;28;20100;-65
2021/05/08 12:57:50;;;;;;;5.05;1.05;;;;;;;;;;5011327;28;20038;-65
2021/05/08 13:00:17;;;;;;;1.95;0.80;;;;;;;;;;5015066;28;20018;-65
2021/05/08 13:02:44;;;;;;;3.30;1.13;;;;;;;;;;5014398;28;20025;-66
2021/05/08 13:05:13;;;;;;;3.08;1.33;;;;;;;;;;5019811;28;20206;-66
2021/05/08 13:07:39;;;;;;;1.02;0.82;;;;;;;;;;5009630;28;20030;-65
2021/05/08 13:10:22;;;;;;;3.92;0.88;;;;;;;;;;5014368;28;20017;-65
2021/05/08 13:12:49;;;;;;;1.38;0.77;;;;;;;;;;5019679;28;20401;-66
2021/05/08 13:15:24;;;;;;;3.78;1.00;;;;;;;;;;5014092;28;20028;-65
2021/05/08 13:17:49;;;;;;;2.70;1.38;;;;;;;;;;4994863;28;20034;-66
2021/05/08 13:20:15;;;;;;;1.77;0.98;;;;;;;;;;5011253;28;20378;-65
2021/05/08 13:22:43;;;;;;;1.30;0.80;;;;;;;;;;5005136;28;20025;-65
2021/05/08 13:25:09;;;;;;;9.50;1.10;;;;;;;;;;5015956;28;20026;-65
2021/05/08 13:27:34;;;;;;;2.60;1.02;;;;;;;;;;5017762;28;20486;-66
2021/05/08 13:29:59;;;;;;;2.47;0.80;;;;;;;;;;5013629;28;20080;-65
2021/05/08 13:32:25;;;;;;;1.70;0.75;;;;;;;;;;5019093;28;20312;-64
2021/05/08 13:34:50;;;;;;;1.73;0.80;;;;;;;;;;5018081;28;20067;-65
2021/05/08 13:37:15;;;;;;;2.97;1.05;;;;;;;;;;5019264;28;20048;-65
2021/05/08 13:39:40;;;;;;;5.53;1.05;;;;;;;;;;5017709;28;20033;-65
2021/05/08 13:42:06;;;;;;;3.73;1.00;;;;;;;;;;5012296;28;20372;-65
2021/05/08 13:44:31;;;;;;;3.80;1.20;;;;;;;;;;4991197;28;20285;-65
2021/05/08 13:46:56;;;;;;;8.63;1.38;;;;;;;;;;5008519;28;20051;-64
2021/05/08 13:49:21;;;;;;;2.15;1.20;;;;;;;;;;5010845;28;20025;-64
2021/05/08 13:51:46;;;;;;;1.50;0.87;;;;;;;;;;5018499;28;20022;-65
2021/05/08 13:54:12;;;;;;;2.15;0.80;;;;;;;;;;5017800;28;20347;-65
2021/05/08 13:56:37;;;;;;;4.37;1.30;;;;;;;;;;5018169;28;20465;-65
2021/05/08 13:59:02;;;;;;;0.70;0.60;;;;;;;;;;5005259;28;20280;-66
2021/05/08 14:01:27;;;;;;;2.35;0.80;;;;;;;;;;5009526;28;20265;-66
2021/05/08 14:03:52;;;;;;;1.23;0.93;;;;;;;;;;5010244;28;20030;-66
2021/05/08 14:06:18;;;;;;;3.27;1.03;;;;;;;;;;5010855;28;20273;-65
2021/05/08 14:08:43;;;;;;;1.23;0.70;;;;;;;;;;5012247;28;20277;-65
2021/05/08 14:11:09;;;;;;;4.28;0.95;;;;;;;;;;5022955;28;20022;-65
2021/05/08 14:13:34;;;;;;;1.15;0.80;;;;;;;;;;5016565;28;20414;-64
2021/05/08 14:15:59;;;;;;;4.63;1.15;;;;;;;;;;5014707;28;20482;-66
2021/05/08 14:18:24;;;;;;;3.43;1.20;;;;;;;;;;5004620;28;20462;-63
2021/05/08 14:20:49;;;;;;;5.93;0.82;;;;;;;;;;5018139;28;20563;-66
2021/05/08 14:23:15;;;;;;;3.80;0.90;;;;;;;;;;5020987;28;20021;-65
2021/05/08 14:25:40;;;;;;;2.33;1.15;;;;;;;;;;5014415;28;20798;-65
2021/05/08 14:28:05;;;;;;;1.23;0.77;;;;;;;;;;5014020;28;20068;-64
2021/05/08 14:30:30;;;;;;;1.77;0.90;;;;;;;;;;5024351;28;20256;-66
2021/05/08 14:32:55;;;;;;;1.53;0.80;;;;;;;;;;5019900;28;20036;-64
2021/05/08 14:35:20;;;;;;;2.13;0.70;;;;;;;;;;5018575;28;20264;-66